Time;durP1;ratioP1;P1;durP2;ratioP2;P2;SDS_P1;SDS_P2;PMS_P1;PMS_P2;Temp;Humidity;BMP_temperature;BMP_pressure;BME280_temperature;BME280_humidity;BME280_pressure;Samples;Min_cycle;Max_cycle;Signal;HPM_P1;HPM_P2
2022/08/09 00:02:07;;;;;;;12.27;10.98;;;665.60;2355.20;;;;;;5091755;28;20027;-72
2022/08/09 00:04:33;;;;;;;13.73;11.60;;;665.60;2355.20;;;;;;5092304;28;20038;-72
2022/08/09 00:07:00;;;;;;;15.00;10.85;;;665.70;2355.20;;;;;;5093295;28;20031;-72
2022/08/09 00:09:25;;;;;;;15.40;11.23;;;665.60;2355.20;;;;;;5091275;28;20051;-73
2022/08/09 00:11:51;;;;;;;12.57;11.07;;;640.90;2329.60;;;;;;5092074;28;20055;-72
2022/08/09 00:14:17;;;;;;;14.25;11.32;;;640.90;2329.60;;;;;;5091088;28;20028;-73
2022/08/09 00:16:43;;;;;;;13.45;11.02;;;640.80;2380.80;;;;;;5095274;28;20086;-73
2022/08/09 00:19:09;;;;;;;11.65;10.45;;;640.60;2406.40;;;;;;5076438;28;20059;-73
2022/08/09 00:21:35;;;;;;;12.82;11.52;;;640.40;2432.00;;;;;;5088449;28;20100;-73
2022/08/09 00:24:01;;;;;;;13.23;11.75;;;640.40;2432.00;;;;;;5088122;28;20031;-73
2022/08/09 00:26:28;;;;;;;17.25;11.57;;;640.50;2432.00;;;;;;5095051;28;20024;-73
2022/08/09 00:28:54;;;;;;;12.85;11.55;;;640.50;2432.00;;;;;;5091335;28;20020;-73
2022/08/09 00:31:21;;;;;;;14.43;11.82;;;;;;;;;;5090852;28;20032;-73
2022/08/09 00:33:47;;;;;;;15.32;11.38;;;640.50;2329.60;;;;;;5093327;28;20032;-73
2022/08/09 00:36:13;;;;;;;11.80;10.57;;;640.20;2329.60;;;;;;5091112;28;20031;-73
2022/08/09 00:38:38;;;;;;;12.90;11.63;;;640.10;2329.60;;;;;;5089850;28;20032;-72
2022/08/09 00:41:05;;;;;;;15.55;11.18;;;640.10;2329.60;;;;;;5074040;28;20032;-72
2022/08/09 00:43:33;;;;;;;14.45;11.65;;;640.10;2329.60;;;;;;5082745;28;20086;-73
2022/08/09 00:45:59;;;;;;;11.85;10.75;;;640.10;2304.00;;;;;;5090119;28;20451;-72
2022/08/09 00:48:24;;;;;;;11.70;10.52;;;640.10;2304.00;;;;;;5104266;28;20024;-72
2022/08/09 00:50:50;;;;;;;12.05;10.85;;;640.00;2304.00;;;;;;5094372;28;20110;-73
2022/08/09 00:53:16;;;;;;;19.65;11.60;;;640.00;2304.00;;;;;;5083157;28;20028;-73
2022/08/09 00:55:42;;;;;;;12.32;11.05;;;640.10;2304.00;;;;;;5090595;28;20036;-72
2022/08/09 00:58:08;;;;;;;13.40;11.88;;;640.30;2278.40;;;;;;5082147;28;20031;-73
2022/08/09 01:00:38;;;;;;;11.80;10.68;;;640.30;2278.40;;;;;;5094262;28;20030;-73
2022/08/09 01:03:19;;;;;;;12.15;10.98;;;640.50;2252.80;;;;;;5094658;28;20012;-73
2022/08/09 01:05:58;;;;;;;12.00;10.80;;;640.50;2252.80;;;;;;5092341;28;20031;-72
2022/08/09 01:08:47;;;;;;;12.52;11.23;;;640.50;2252.80;;;;;;5091739;28;20510;-72
2022/08/09 01:11:37;;;;;;;12.75;11.55;;;640.50;2252.80;;;;;;5081464;28;20043;-72
2022/08/09 01:14:09;;;;;;;12.98;11.55;;;640.60;2252.80;;;;;;5084724;28;20028;-72
2022/08/09 01:16:40;;;;;;;13.35;11.98;;;640.60;2227.20;;;;;;5106820;27;20028;-72
2022/08/09 01:19:30;;;;;;;14.93;11.25;;;640.50;2227.20;;;;;;5090321;28;20399;-72
2022/08/09 01:22:19;;;;;;;13.80;11.32;;;640.50;2227.20;;;;;;5086859;28;20052;-73
2022/08/09 01:25:01;;;;;;;13.27;11.35;;;640.30;2278.40;;;;;;5093146;28;20028;-73
2022/08/09 01:27:28;;;;;;;12.93;11.57;;;640.50;2252.80;;;;;;5096024;28;20051;-72
2022/08/09 01:30:01;;;;;;;12.45;10.93;;;640.60;2252.80;;;;;;5096745;28;20332;-73
2022/08/09 01:32:32;;;;;;;13.43;11.27;;;640.60;2227.20;;;;;;5092647;28;20107;-73
2022/08/09 01:35:01;;;;;;;14.23;10.88;;;640.60;2201.60;;;;;;5090706;28;20052;-73
2022/08/09 01:37:29;;;;;;;14.93;11.90;;;640.50;2227.20;;;;;;5091635;28;20044;-73
2022/08/09 01:39:57;;;;;;;14.32;12.82;;;640.40;2252.80;;;;;;5102070;28;20042;-73
2022/08/09 01:42:25;;;;;;;11.90;10.60;;;640.40;2252.80;;;;;;5090727;28;20430;-73
2022/08/09 01:44:53;;;;;;;13.13;11.80;;;640.30;2227.20;;;;;;5092170;28;20024;-72
2022/08/09 01:47:20;;;;;;;14.95;11.15;;;640.30;2227.20;;;;;;5094587;28;20119;-72
2022/08/09 01:49:48;;;;;;;15.15;11.13;;;640.20;2227.20;;;;;;5089971;28;20049;-73
2022/08/09 01:52:18;;;;;;;18.73;12.25;;;640.30;2227.20;;;;;;5094437;28;20114;-74
2022/08/09 01:54:51;;;;;;;12.27;11.07;;;640.60;2176.00;;;;;;5087050;28;20041;-74
2022/08/09 01:57:22;;;;;;;;;;;640.50;2201.60;;;;;;5093441;28;20020;-73
2022/08/09 01:59:50;;;;;;;12.45;11.02;;;640.40;2201.60;;;;;;5090885;28;19911;-73
2022/08/09 02:02:18;;;;;;;11.73;10.63;;;640.40;2176.00;;;;;;5090672;28;20097;-73
2022/08/09 02:04:44;;;;;;;12.40;10.63;;;640.40;2201.60;;;;;;5084370;28;20035;-73
2022/08/09 02:07:15;;;;;;;13.27;11.15;;;640.40;2176.00;;;;;;5089671;28;20064;-73
2022/08/09 02:09:58;;;;;;;13.18;11.88;;;640.60;2176.00;;;;;;5086898;28;20049;-73
2022/08/09 02:12:26;;;;;;;12.90;10.83;;;640.80;2176.00;;;;;;5087680;28;20020;-73
2022/08/09 02:14:55;;;;;;;13.38;10.23;;;640.70;2176.00;;;;;;5090932;28;20127;-73
2022/08/09 02:17:26;;;;;;;11.40;10.15;;;640.80;2150.40;;;;;;5076426;28;20479;-73
2022/08/09 02:19:52;;;;;;;11.25;10.05;;;640.70;2150.40;;;;;;5089601;28;20527;-74
2022/08/09 02:22:40;;;;;;;12.30;10.68;;;640.60;2176.00;;;;;;5079052;28;20124;-73
2022/08/09 02:25:14;;;;;;;12.82;9.73;;;640.60;2150.40;;;;;;5084076;28;20051;-73
2022/08/09 02:27:46;;;;;;;11.95;10.07;;;640.50;2150.40;;;;;;5089820;28;20043;-73
2022/08/09 02:30:13;;;;;;;13.43;9.23;;;640.30;2176.00;;;;;;5084750;28;20020;-73
2022/08/09 02:32:44;;;;;;;12.32;9.55;;;640.20;2176.00;;;;;;5092952;28;20467;-74
2022/08/09 02:35:21;;;;;;;11.10;9.65;;;640.10;2176.00;;;;;;5119067;27;20143;-74
2022/08/09 02:37:50;;;;;;;15.82;10.10;;;615.30;2201.60;;;;;;5087688;28;20020;-73
2022/08/09 02:40:17;;;;;;;12.63;11.00;;;615.20;2201.60;;;;;;5091402;28;20528;-73
2022/08/09 02:42:45;;;;;;;13.23;10.60;;;615.30;2201.60;;;;;;5096910;28;20020;-73
2022/08/09 02:45:19;;;;;;;13.00;10.75;;;615.20;2201.60;;;;;;5088843;28;20047;-74
2022/08/09 02:47:47;;;;;;;13.32;11.02;;;615.30;2201.60;;;;;;5091433;28;20715;-73
2022/08/09 02:50:33;;;;;;;15.82;10.98;;;640.00;2278.40;;;;;;5077378;28;20022;-72
2022/08/09 02:53:03;;;;;;;14.80;12.23;;;640.00;2278.40;;;;;;5093427;28;20137;-73
2022/08/09 02:55:30;;;;;;;14.30;10.55;;;640.00;2278.40;;;;;;5084870;28;20032;-72
2022/08/09 02:57:59;;;;;;;12.95;11.70;;;615.30;2278.40;;;;;;5083265;28;20160;-73
2022/08/09 03:00:25;;;;;;;12.23;11.00;;;640.00;2252.80;;;;;;5088278;28;20020;-72
2022/08/09 03:02:54;;;;;;;12.15;10.95;;;640.10;2227.20;;;;;;5089534;28;20054;-72
2022/08/09 03:05:21;;;;;;;13.73;10.77;;;640.00;2227.20;;;;;;5092231;28;20031;-72
2022/08/09 03:07:49;;;;;;;11.48;10.27;;;640.10;2227.20;;;;;;5083791;28;20059;-72
2022/08/09 03:10:15;;;;;;;17.40;11.43;;;640.00;2227.20;;;;;;5093254;28;20016;-72
2022/08/09 03:12:43;;;;;;;12.55;11.35;;;640.00;2227.20;;;;;;5088678;28;20036;-72
2022/08/09 03:15:10;;;;;;;13.50;11.52;;;615.30;2227.20;;;;;;5089247;28;20400;-73
2022/08/09 03:17:36;;;;;;;12.32;11.02;;;615.20;2252.80;;;;;;5092927;28;20437;-73
2022/08/09 03:20:05;;;;;;;11.77;10.60;;;615.20;2252.80;;;;;;5091903;28;20079;-72
2022/08/09 03:22:35;;;;;;;12.88;11.00;;;615.10;2252.80;;;;;;5077179;28;20029;-72
2022/08/09 03:25:01;;;;;;;10.60;9.57;;;615.00;2278.40;;;;;;5092231;28;20024;-73
2022/08/09 03:27:29;;;;;;;14.40;12.15;;;615.00;2278.40;;;;;;5090296;28;20024;-72
2022/08/09 03:29:55;;;;;;;18.58;16.67;;;614.70;2329.60;;;;;;5084545;28;20474;-72
2022/08/09 03:32:22;;;;;;;12.27;10.77;;;614.70;2329.60;;;;;;5091801;28;20103;-72
2022/08/09 03:34:48;;;;;;;11.82;10.63;;;614.70;2304.00;;;;;;5093145;28;20032;-73
2022/08/09 03:37:14;;;;;;;10.43;9.52;;;614.70;2278.40;;;;;;5089977;28;20028;-72
2022/08/09 03:39:40;;;;;;;10.00;9.00;;;614.70;2252.80;;;;;;5083194;28;20489;-72
2022/08/09 03:42:05;;;;;;;12.80;10.55;;;614.70;2252.80;;;;;;5085302;28;20034;-72
2022/08/09 03:44:31;;;;;;;12.02;10.52;;;614.60;2252.80;;;;;;5089879;28;20107;-72
2022/08/09 03:46:57;;;;;;;10.18;9.18;;;614.70;2252.80;;;;;;5092585;28;20028;-73
2022/08/09 03:49:26;;;;;;;10.20;9.30;;;614.60;2252.80;;;;;;5091664;28;20106;-73
2022/08/09 03:51:56;;;;;;;9.82;8.82;;;614.60;2252.80;;;;;;5089265;28;20111;-73
2022/08/09 03:54:25;;;;;;;11.90;8.73;;;614.50;2227.20;;;;;;5086193;28;20044;-74
2022/08/09 03:56:52;;;;;;;11.85;9.02;;;614.70;2201.60;;;;;;5091040;28;20027;-73
2022/08/09 03:59:18;;;;;;;10.75;8.88;;;614.70;2201.60;;;;;;5092140;28;20028;-74
2022/08/09 04:01:45;;;;;;;9.00;8.10;;;614.70;2201.60;;;;;;5084947;28;20035;-73
2022/08/09 04:04:12;;;;;;;9.70;8.55;;;614.70;2176.00;;;;;;5083322;28;20548;-73
2022/08/09 04:06:38;;;;;;;11.32;8.13;;;614.70;2201.60;;;;;;5091170;28;20028;-73
2022/08/09 04:09:06;;;;;;;15.45;12.68;;;614.60;2227.20;;;;;;5093133;28;20028;-73
2022/08/09 04:11:49;;;;;;;9.07;8.00;;;614.60;2201.60;;;;;;5091214;28;20051;-73
2022/08/09 04:14:20;;;;;;;9.60;7.93;;;614.70;2201.60;;;;;;5080828;28;20119;-72
2022/08/09 04:16:46;;;;;;;9.18;8.27;;;614.90;2176.00;;;;;;5092728;28;20072;-72
2022/08/09 04:19:12;;;;;;;14.20;9.02;;;614.90;2176.00;;;;;;5092521;28;20046;-72
2022/08/09 04:21:38;;;;;;;14.70;9.98;;;615.00;2176.00;;;;;;5082822;28;20032;-71
2022/08/09 04:24:05;;;;;;;10.43;9.23;;;615.20;2150.40;;;;;;5091258;28;20028;-73
2022/08/09 04:26:30;;;;;;;10.65;8.70;;;615.10;2176.00;;;;;;5108244;28;20028;-72
2022/08/09 04:28:56;;;;;;;10.43;9.43;;;615.10;2176.00;;;;;;5092899;28;20127;-71
2022/08/09 04:31:22;;;;;;;10.05;9.05;;;615.10;2176.00;;;;;;5091622;28;20024;-73
2022/08/09 04:33:48;;;;;;;10.05;7.85;;;;;;;;;;5091039;28;20032;-73
2022/08/09 04:36:14;;;;;;;12.57;9.40;;;;;;;;;;5090101;28;20031;-72
2022/08/09 04:38:40;;;;;;;15.55;9.48;;;;;;;;;;5092477;28;20032;-72
2022/08/09 04:41:06;;;;;;;13.45;9.70;;;;;;;;;;5091957;28;20020;-72
2022/08/09 04:43:32;;;;;;;15.25;10.75;;;;;;;;;;5092259;28;20020;-72
2022/08/09 04:45:59;;;;;;;21.27;19.00;;;;;;;;;;5092292;28;20471;-72
2022/08/09 04:48:26;;;;;;;15.07;13.35;;;;;;;;;;5087764;28;20516;-73
2022/08/09 04:50:52;;;;;;;13.73;11.27;;;;;;;;;;5090808;28;20093;-72
2022/08/09 04:53:18;;;;;;;14.40;10.95;;;;;;;;;;5124644;27;20039;-72
2022/08/09 04:55:44;;;;;;;7.95;7.15;;;;;;;;;;5091910;28;20063;-73
2022/08/09 04:58:10;;;;;;;10.20;9.15;;;;;;;;;;5094397;28;20028;-72
2022/08/09 05:00:36;;;;;;;10.85;8.95;;;;;;;;;;5124252;27;20034;-73
2022/08/09 05:03:03;;;;;;;11.98;9.80;;;;;;;;;;5088222;28;20028;-73
2022/08/09 05:05:29;;;;;;;15.43;10.23;;;;;;;;;;5094724;28;20501;-72
2022/08/09 05:07:55;;;;;;;16.90;8.63;;;;;;;;;;5082474;28;20077;-72
2022/08/09 05:10:21;;;;;;;11.13;8.73;;;;;;;;;;5095529;28;20062;-73
2022/08/09 05:12:47;;;;;;;10.43;9.32;;;;;;;;;;5084744;28;20020;-73
2022/08/09 05:15:13;;;;;;;9.98;8.60;;;;;;;;;;5091430;28;20381;-73
2022/08/09 05:17:39;;;;;;;8.98;8.13;;;;;;;;;;5093335;28;20569;-73
2022/08/09 05:20:06;;;;;;;11.15;8.55;;;;;;;;;;5091094;28;20075;-73
2022/08/09 05:22:32;;;;;;;11.65;9.15;;;;;;;;;;5090725;28;20107;-73
2022/08/09 05:24:58;;;;;;;9.93;8.85;;;;;;;;;;5084829;28;20020;-73
2022/08/09 05:27:24;;;;;;;18.00;10.18;;;;;;;;;;5084351;28;20024;-72
2022/08/09 05:29:50;;;;;;;11.55;8.93;;;;;;;;;;5095907;28;20050;-73
2022/08/09 05:32:16;;;;;;;11.13;9.35;;;;;;;;;;5093964;28;20581;-73
2022/08/09 05:34:42;;;;;;;11.00;9.90;;;;;;;;;;5091267;28;20028;-73
2022/08/09 05:37:09;;;;;;;10.77;9.63;;;;;;;;;;5093820;28;20114;-73
2022/08/09 05:39:35;;;;;;;12.80;10.60;;;;;;;;;;5081963;28;20024;-73
2022/08/09 05:42:01;;;;;;;13.50;10.15;;;640.10;2124.80;;;;;;5090797;28;20028;-73
2022/08/09 05:44:27;;;;;;;11.73;10.52;;;615.30;2150.40;;;;;;5091100;28;20031;-73
2022/08/09 05:46:53;;;;;;;13.20;10.43;;;;;;;;;;5091563;28;20020;-73
2022/08/09 05:49:19;;;;;;;12.50;10.30;;;;;;;;;;5090772;28;20024;-73
2022/08/09 05:51:45;;;;;;;12.20;11.10;;;;;;;;;;5089699;28;20024;-73
2022/08/09 05:54:11;;;;;;;12.02;10.30;;;;;;;;;;5085558;28;20048;-72
2022/08/09 05:56:37;;;;;;;15.02;11.32;;;;;;;;;;5119838;27;20016;-73
2022/08/09 05:59:03;;;;;;;12.25;11.05;;;;;;;;;;5091101;28;20430;-73
2022/08/09 06:01:29;;;;;;;12.23;10.77;;;;;;;;;;5080752;28;20427;-73
2022/08/09 06:03:55;;;;;;;12.40;11.20;;;;;;;;;;5123117;27;20032;-73
2022/08/09 06:06:22;;;;;;;13.48;12.02;;;;;;;;;;5091111;28;20612;-73
2022/08/09 06:08:48;;;;;;;15.77;11.25;;;;;;;;;;5089404;28;20028;-73
2022/08/09 06:11:14;;;;;;;17.30;10.60;;;;;;;;;;5089623;28;20464;-73
2022/08/09 06:13:40;;;;;;;12.27;11.00;;;;;;;;;;5089025;28;20465;-73
2022/08/09 06:16:07;;;;;;;11.95;10.75;;;;;;;;;;5082745;28;20077;-73
2022/08/09 06:18:34;;;;;;;14.52;11.63;;;;;;;;;;5089433;28;20532;-72
2022/08/09 06:21:00;;;;;;;14.40;12.80;;;;;;;;;;5090348;28;20044;-73
2022/08/09 06:23:27;;;;;;;12.82;11.10;;;;;;;;;;5089985;28;20107;-72
2022/08/09 06:25:54;;;;;;;10.48;9.38;;;;;;;;;;5087981;28;20197;-73
2022/08/09 06:28:20;;;;;;;13.25;10.20;;;;;;;;;;5076985;28;20020;-74
2022/08/09 06:30:46;;;;;;;11.98;10.77;;;;;;;;;;5094929;28;20012;-74
2022/08/09 06:33:12;;;;;;;11.60;10.18;;;;;;;;;;5083772;28;20024;-73
2022/08/09 06:35:38;;;;;;;13.43;11.27;;;;;;;;;;5084274;28;20047;-73
2022/08/09 06:38:04;;;;;;;15.23;10.43;;;;;;;;;;5095570;28;20067;-73
2022/08/09 06:40:30;;;;;;;12.07;9.85;;;;;;;;;;5089397;28;20028;-73
2022/08/09 06:42:56;;;;;;;11.05;9.98;;;;;;;;;;5089938;28;20399;-72
2022/08/09 06:45:23;;;;;;;11.02;9.50;;;;;;;;;;5093782;28;20031;-72
2022/08/09 06:47:49;;;;;;;11.80;9.85;;;;;;;;;;5090653;28;20028;-73
2022/08/09 06:50:15;;;;;;;11.18;10.07;;;;;;;;;;5121793;27;20189;-73
2022/08/09 06:52:45;;;;;;;11.23;10.02;;;;;;;;;;5093751;28;20024;-73
2022/08/09 06:55:12;;;;;;;10.25;9.00;;;;;;;;;;5088696;28;20036;-72
2022/08/09 06:57:38;;;;;;;12.88;10.18;;;;;;;;;;5089606;28;20111;-72
2022/08/09 07:00:05;;;;;;;12.70;10.68;;;;;;;;;;5089347;28;20028;-72
2022/08/09 07:02:31;;;;;;;11.25;10.05;;;;;;;;;;5089261;28;20091;-72
2022/08/09 07:04:57;;;;;;;14.25;9.32;;;;;;;;;;5088089;28;20101;-72
2022/08/09 07:07:23;;;;;;;11.63;10.23;;;;;;;;;;5123215;28;20028;-72
2022/08/09 07:09:49;;;;;;;12.98;10.15;;;;;;;;;;5088960;28;20466;-73
2022/08/09 07:12:15;;;;;;;12.10;10.27;;;;;;;;;;5089644;28;20035;-72
2022/08/09 07:14:41;;;;;;;12.43;10.30;;;;;;;;;;5089500;28;20047;-73
2022/08/09 07:17:07;;;;;;;10.75;9.63;;;;;;;;;;5086572;28;20756;-73
2022/08/09 07:19:33;;;;;;;13.48;9.57;;;;;;;;;;5089872;28;20032;-73
2022/08/09 07:22:00;;;;;;;11.25;10.15;;;;;;;;;;5078630;28;20045;-73
2022/08/09 07:24:29;;;;;;;13.90;11.77;;;;;;;;;;5089765;28;20070;-73
2022/08/09 07:26:55;;;;;;;15.23;13.70;;;;;;;;;;5090177;28;20099;-73
2022/08/09 07:29:21;;;;;;;16.33;13.52;;;;;;;;;;5092765;28;20055;-73
2022/08/09 07:31:47;;;;;;;14.82;13.40;;;;;;;;;;5090821;28;20707;-73
2022/08/09 07:34:13;;;;;;;15.18;13.63;;;;;;;;;;5093569;28;20047;-72
2022/08/09 07:36:40;;;;;;;15.85;14.25;;;;;;;;;;5093661;28;20036;-73
2022/08/09 07:39:06;;;;;;;16.10;14.65;;;;;;;;;;5098089;28;20487;-73
2022/08/09 07:41:32;;;;;;;24.70;19.25;;;;;;;;;;5089422;28;20120;-73
2022/08/09 07:43:59;;;;;;;20.30;16.13;;;;;;;;;;5082102;28;20480;-75
2022/08/09 07:46:25;;;;;;;22.02;19.38;;;;;;;;;;5077299;28;20032;-75
2022/08/09 07:48:51;;;;;;;21.48;17.65;;;;;;;;;;5093199;28;20020;-74
2022/08/09 07:51:17;;;;;;;21.15;18.95;;;;;;;;;;5125528;27;20033;-75
2022/08/09 07:53:44;;;;;;;23.15;20.58;;;;;;;;;;5087446;28;20024;-75
2022/08/09 07:56:10;;;;;;;21.13;19.13;;;;;;;;;;5092268;28;20123;-74
2022/08/09 07:58:36;;;;;;;21.23;19.02;;;;;;;;;;5120072;27;20029;-75
2022/08/09 08:01:02;;;;;;;24.23;21.63;;;;;;;;;;5088261;28;20031;-75
2022/08/09 08:03:29;;;;;;;22.45;19.98;;;;;;;;;;5089057;28;20020;-75
2022/08/09 08:05:55;;;;;;;24.17;21.70;;;;;;;;;;5092281;28;20086;-75
2022/08/09 08:08:21;;;;;;;23.15;20.90;;;;;;;;;;5101131;28;20063;-75
2022/08/09 08:10:47;;;;;;;23.98;21.50;;;;;;;;;;5080685;28;20025;-75
2022/08/09 08:13:13;;;;;;;23.88;21.70;;;;;;;;;;5094127;28;20035;-75
2022/08/09 08:15:39;;;;;;;23.02;20.63;;;;;;;;;;5092953;28;20059;-75
2022/08/09 08:18:05;;;;;;;25.92;22.63;;;;;;;;;;5092237;28;20020;-75
2022/08/09 08:20:32;;;;;;;26.75;23.85;;;;;;;;;;5091261;28;20401;-75
2022/08/09 08:22:59;;;;;;;26.48;23.77;;;;;;;;;;5083335;28;20597;-74
2022/08/09 08:25:25;;;;;;;25.02;22.52;;;;;;;;;;5088540;28;20047;-75
2022/08/09 08:27:51;;;;;;;26.75;24.00;;;;;;;;;;5096465;28;20030;-77
2022/08/09 08:30:18;;;;;;;27.48;24.73;;;;;;;;;;5090368;28;20016;-76
2022/08/09 08:32:44;;;;;;;27.33;23.60;;;;;;;;;;5097041;28;20044;-74
2022/08/09 08:35:10;;;;;;;28.17;25.25;;;;;;;;;;5090376;28;20040;-74
2022/08/09 08:37:36;;;;;;;28.45;25.45;;;;;;;;;;5090682;28;20020;-74
2022/08/09 08:40:06;;;;;;;32.45;24.55;;;;;;;;;;5102437;28;20034;-72
2022/08/09 08:42:32;;;;;;;27.02;24.15;;;;;;;;;;5093020;28;20020;-72
2022/08/09 08:44:59;;;;;;;26.20;23.50;;;;;;;;;;5125275;27;20020;-73
2022/08/09 08:47:26;;;;;;;24.30;21.70;;;;;;;;;;5091818;28;20073;-72
2022/08/09 08:49:53;;;;;;;25.48;22.77;;;;;;;;;;5092196;28;20095;-73
2022/08/09 08:52:27;;;;;;;39.72;28.13;;;;;;;;;;5125379;27;20469;-78
2022/08/09 08:54:56;;;;;;;26.20;23.35;;;;;;;;;;5091822;28;20079;-77
2022/08/09 08:57:22;;;;;;;25.23;22.33;;;;;;;;;;5092680;28;20016;-78
2022/08/09 08:59:49;;;;;;;28.05;21.30;;;;;;;;;;5089355;28;20073;-77
2022/08/09 09:02:25;;;;;;;50.72;22.27;;;;;;;;;;5092299;28;20028;-77
2022/08/09 09:04:52;;;;;;;22.50;19.77;;;;;;;;;;5121735;27;20495;-77
2022/08/09 09:07:18;;;;;;;25.95;21.65;;;;;;;;;;5097989;28;20024;-76
2022/08/09 09:09:48;;;;;;;37.55;24.13;;;;;;;;;;5097289;28;20099;-77
2022/08/09 09:12:18;;;;;;;30.10;23.25;;;;;;;;;;5092134;28;20021;-75
2022/08/09 09:14:45;;;;;;;31.17;23.55;;;;;;;;;;5092026;28;20035;-75
2022/08/09 09:17:11;;;;;;;32.92;25.10;;;;;;;;;;5091117;28;20491;-75
2022/08/09 09:19:38;;;;;;;36.75;25.27;;;;;;;;;;5090336;28;20035;-73
2022/08/09 09:22:13;;;;;;;30.23;24.02;;;;;;;;;;5091540;28;20051;-72
2022/08/09 09:24:46;;;;;;;31.42;23.20;;;;;;;;;;5072641;28;20060;-75
2022/08/09 09:27:15;;;;;;;29.13;23.42;;;;;;;;;;5077500;28;20162;-75
2022/08/09 09:29:43;;;;;;;23.33;19.60;;;;;;;;;;5111416;27;20029;-74
2022/08/09 09:32:10;;;;;;;22.23;16.90;;;;;;;;;;5091414;28;20028;-74
2022/08/09 09:34:37;;;;;;;21.02;18.73;;;;;;;;;;5092069;28;20036;-75
2022/08/09 09:37:04;;;;;;;20.38;16.33;;;;;;;;;;5090672;28;20024;-76
2022/08/09 09:39:31;;;;;;;25.67;22.77;;;;;;;;;;5096912;28;20110;-75
2022/08/09 09:41:57;;;;;;;31.60;26.85;;;;;;;;;;5124735;27;20052;-75
2022/08/09 09:44:28;;;;;;;37.20;26.63;;;;;;;;;;5124215;27;20024;-75
2022/08/09 09:47:03;;;;;;;29.02;24.05;;;;;;;;;;5091751;28;20024;-76
2022/08/09 09:49:29;;;;;;;29.98;25.73;;;;;;;;;;5091716;28;20031;-78
2022/08/09 09:52:03;;;;;;;22.13;17.02;;;;;;;;;;5089889;28;20029;-75
2022/08/09 09:54:37;;;;;;;25.38;18.77;;;;;;;;;;5089530;28;20111;-74
2022/08/09 09:57:12;;;;;;;26.70;21.50;;;;;;;;;;5070666;28;20024;-75
2022/08/09 09:59:38;;;;;;;28.20;22.58;;;;;;;;;;5117513;27;20027;-75
2022/08/09 10:02:05;;;;;;;36.72;25.35;;;;;;;;;;5092158;28;20051;-75
2022/08/09 10:04:31;;;;;;;25.42;19.25;;;;;;;;;;5093637;28;20471;-75
2022/08/09 10:06:57;;;;;;;30.27;24.23;;;;;;;;;;5090312;28;20455;-74
2022/08/09 10:09:23;;;;;;;29.80;24.83;;;;;;;;;;5110437;27;20056;-74
2022/08/09 10:11:59;;;;;;;39.97;30.92;;;;;;;;;;5079329;28;20029;-75
2022/08/09 10:14:26;;;;;;;26.38;23.55;;;;;;;;;;5081225;28;20438;-76
2022/08/09 10:16:53;;;;;;;20.85;17.38;;;;;;;;;;5080347;28;20497;-75
2022/08/09 10:19:19;;;;;;;37.35;33.25;;;;;;;;;;5091439;28;20052;-75
2022/08/09 10:21:49;;;;;;;25.42;20.15;;;;;;;;;;5091818;28;20036;-75
2022/08/09 10:24:16;;;;;;;25.55;20.95;;;;;;;;;;5094394;28;20043;-74
2022/08/09 10:26:42;;;;;;;39.90;30.48;;;;;;;;;;5090806;28;20050;-74
2022/08/09 10:29:11;;;;;;;23.02;20.50;;;;;;;;;;5089822;28;20051;-75
2022/08/09 10:31:38;;;;;;;25.30;22.45;;;;;;;;;;5089246;28;20501;-74
2022/08/09 10:34:06;;;;;;;38.78;23.38;;;;;;;;;;5092445;28;20024;-74
2022/08/09 10:36:32;;;;;;;24.27;17.08;;;;;;;;;;5094443;28;20151;-75
2022/08/09 10:38:58;;;;;;;27.20;23.52;;;;;;;;;;5089331;28;20522;-75
2022/08/09 10:41:24;;;;;;;32.47;28.98;;;;;;;;;;5098252;28;20379;-75
2022/08/09 10:43:51;;;;;;;20.85;15.70;;;;;;;;;;5079079;28;20039;-76
2022/08/09 10:46:17;;;;;;;28.25;24.98;;;;;;;;;;5090467;28;20025;-77
2022/08/09 10:48:49;;;;;;;28.33;25.35;;;;;;;;;;5124877;27;20115;-81
2022/08/09 10:51:30;;;;;;;20.70;18.53;;;;;;;;;;5130215;27;20032;-84
2022/08/09 10:54:09;;;;;;;43.58;38.88;;;;;;;;;;5125094;27;20028;-83
2022/08/09 10:56:37;;;;;;;28.65;25.70;;;;;;;;;;5090407;28;20047;-79
2022/08/09 10:59:23;;;;;;;27.33;24.33;;;;;;;;;;5123965;27;20031;-78
2022/08/09 11:01:50;;;;;;;28.65;25.65;;;;;;;;;;5071743;28;20043;-80
2022/08/09 11:04:19;;;;;;;23.15;19.75;;;;;;;;;;5090650;28;20027;-77
2022/08/09 11:06:46;;;;;;;23.60;19.98;;;;;;;;;;5090776;28;20027;-81
2022/08/09 11:09:18;;;;;;;22.77;18.52;;;;;;;;;;5093379;28;20099;-79
2022/08/09 11:11:53;;;;;;;18.88;16.75;;;;;;;;;;5090292;28;20095;-79
2022/08/09 11:14:55;;;;;;;25.90;20.33;;;;;;;;;;5098791;28;20035;-78
2022/08/09 11:17:21;;;;;;;21.48;19.23;;;;;;;;;;5082477;28;20092;-77
2022/08/09 11:19:57;;;;;;;20.95;16.42;;;;;;;;;;5093400;28;20472;-78
2022/08/09 11:22:45;;;;;;;18.35;16.23;;;;;;;;;;5093336;28;20391;-77
2022/08/09 11:25:21;;;;;;;19.27;16.65;;;;;;;;;;5093833;28;20115;-78
2022/08/09 11:27:51;;;;;;;22.13;17.88;;;;;;;;;;5093946;28;20102;-74
2022/08/09 11:30:26;;;;;;;18.20;12.30;;;;;;;;;;5088150;28;20036;-76
2022/08/09 11:33:07;;;;;;;19.30;15.05;;;;;;;;;;5084374;28;20025;-74
2022/08/09 11:35:37;;;;;;;22.52;16.63;;;;;;;;;;5084124;28;20036;-75
2022/08/09 11:38:19;;;;;;;18.05;15.82;;;;;;;;;;5090012;28;20158;-77
2022/08/09 11:40:45;;;;;;;19.80;17.00;;;;;;;;;;5097849;28;20032;-77
2022/08/09 11:43:15;;;;;;;19.08;17.02;;;;;;;;;;5091939;28;20019;-74
2022/08/09 11:45:54;;;;;;;23.40;18.40;;;;;;;;;;5095493;28;20034;-78
2022/08/09 11:48:24;;;;;;;21.38;14.95;;;;;;;;;;5092994;28;20496;-74
2022/08/09 11:50:56;;;;;;;17.75;15.38;;;;;;;;;;5094225;28;20515;-73
2022/08/09 11:53:26;;;;;;;18.17;16.00;;;;;;;;;;5092268;28;20550;-73
2022/08/09 11:55:54;;;;;;;18.65;14.60;;;;;;;;;;5095230;28;20051;-75
2022/08/09 11:58:22;;;;;;;19.85;14.65;;;;;;;;;;5089123;28;20024;-74
2022/08/09 12:00:48;;;;;;;17.77;12.18;;;;;;;;;;5088226;28;20020;-74
2022/08/09 12:03:15;;;;;;;18.58;14.65;;;;;;;;;;5091474;28;20028;-74
2022/08/09 12:05:41;;;;;;;18.35;11.77;;;;;;;;;;5087189;28;20020;-74
2022/08/09 12:08:08;;;;;;;19.38;14.38;;;;;;;;;;5091149;28;20027;-77
2022/08/09 12:10:35;;;;;;;15.93;14.20;;;;;;;;;;5092157;28;20450;-76
2022/08/09 12:13:01;;;;;;;21.50;15.57;;;;;;;;;;5091684;28;20024;-76
2022/08/09 12:15:27;;;;;;;18.25;14.60;;;;;;;;;;5090676;28;20515;-75
2022/08/09 12:17:54;;;;;;;18.38;14.48;;;;;;;;;;5089979;28;20024;-75
2022/08/09 12:20:24;;;;;;;20.13;15.10;;;;;;;;;;5115638;27;20051;-77
2022/08/09 12:22:53;;;;;;;15.13;13.32;;;;;;;;;;5089767;28;20024;-75
2022/08/09 12:25:19;;;;;;;16.40;14.70;;;;;;;;;;5104031;27;20023;-77
2022/08/09 12:27:45;;;;;;;16.42;13.90;;;;;;;;;;5091201;28;20016;-76
2022/08/09 12:30:12;;;;;;;18.02;13.18;;;;;;;;;;5093467;28;20095;-77
2022/08/09 12:32:38;;;;;;;15.35;13.85;;;;;;;;;;5088281;28;20483;-77
2022/08/09 12:35:05;;;;;;;15.18;13.60;;;;;;;;;;5090365;28;20541;-78
2022/08/09 12:37:32;;;;;;;18.58;9.25;;;;;;;;;;5093164;28;20055;-76
2022/08/09 12:40:04;;;;;;;15.55;13.45;;;;;;;;;;5124820;27;20020;-76
2022/08/09 12:42:30;;;;;;;11.15;9.50;;;;;;;;;;5128316;27;20373;-75
2022/08/09 12:44:56;;;;;;;12.75;11.57;;;;;;;;;;5090059;28;20024;-77
2022/08/09 12:47:22;;;;;;;12.32;11.07;;;;;;;;;;5094067;28;20035;-75
2022/08/09 12:52:40;;;;;;;13.43;11.75;;;;;;;;;;5091098;28;20504;-77
2022/08/09 12:55:08;;;;;;;12.07;10.93;;;;;;;;;;5088642;28;20085;-77
2022/08/09 12:57:45;;;;;;;10.27;9.23;;;;;;;;;;5116025;27;20016;-75
2022/08/09 13:00:17;;;;;;;9.65;8.65;;;;;;;;;;5089429;28;20012;-76
2022/08/09 13:02:54;;;;;;;9.98;8.98;;;;;;;;;;5091208;28;20032;-76
2022/08/09 13:05:21;;;;;;;10.45;7.50;;;;;;;;;;5078831;28;20021;-74
2022/08/09 13:08:06;;;;;;;10.05;8.85;;;;;;;;;;5093710;28;20043;-74
2022/08/09 13:10:42;;;;;;;13.10;9.40;;;;;;;;;;5090753;28;20044;-74
2022/08/09 13:13:08;;;;;;;9.80;7.72;;;;;;;;;;5090633;28;20020;-73
2022/08/09 13:15:34;;;;;;;8.10;7.30;;;;;;;;;;5090403;28;20024;-75
2022/08/09 13:18:04;;;;;;;11.13;9.18;;;;;;;;;;5112417;27;20029;-73
2022/08/09 13:20:34;;;;;;;10.00;9.10;;;;;;;;;;5088398;28;20399;-74
2022/08/09 13:23:00;;;;;;;9.65;7.57;;;;;;;;;;5091164;28;20020;-74
2022/08/09 13:25:36;;;;;;;9.65;8.07;;;;;;;;;;5078039;28;20107;-74
2022/08/09 13:28:09;;;;;;;9.77;8.85;;;;;;;;;;5123979;27;20032;-73
2022/08/09 13:30:35;;;;;;;9.23;7.80;;;;;;;;;;5090838;28;20028;-73
2022/08/09 13:33:01;;;;;;;12.93;8.20;;;;;;;;;;5081491;28;20020;-72
2022/08/09 13:35:28;;;;;;;13.23;11.48;;;;;;;;;;5085855;28;20453;-73
2022/08/09 13:37:58;;;;;;;9.00;8.07;;;;;;;;;;5124139;27;20520;-72
2022/08/09 13:40:25;;;;;;;12.73;10.13;;;;;;;;;;5091487;28;20135;-73